Belgrade Lakes, Maine
Current Conditions -  °F | °C
As of 2:15 PM on Friday 21 Nov 2014 (Local Time) from KWVL Reporting Station
Broken Clouds Broken Clouds  
Wind Chill: 17°   Ceiling: 4900
Heat Index: 28°   Visibility: 10mi
Dew Point:   Wind: 16mph
Humidity: 40%   Direction: 260°W
Pressure: 30.03"   Gusts: 24mph
Location:  44.53°N, 69.89°W
Report Text: KWVL 211915Z 26014G21KT 240V300 10SM BKN049 BKN060 M02/M14 A3003 RMK AO1
Loading
Personal Weather Stations






























Interactive Weather Map New forecast layout! Learn more

10-Day Weather Forecast

Advertisements
Track Severe Weather on mobile